Time;durP1;ratioP1;P1;durP2;ratioP2;P2;SDS_P1;SDS_P2;PMS_P1;PMS_P2;Temp;Humidity;BMP_temperature;BMP_pressure;BME280_temperature;BME280_humidity;BME280_pressure;Samples;Min_cycle;Max_cycle;Signal;HPM_P1;HPM_P2
2021/05/14 00:00:32;;;;;;;5.03;4.62;;;23.40;52.20;;;;;;4309016;60;21071;-22
2021/05/14 00:05:35;;;;;;;5.10;4.60;;;23.50;52.20;;;;;;4308507;60;21051;-26
2021/05/14 00:10:38;;;;;;;5.62;5.03;;;23.40;52.20;;;;;;4336818;61;21561;-21
2021/05/14 00:15:39;;;;;;;5.47;4.97;;;23.40;52.20;;;;;;4330160;60;21059;-23
2021/05/14 00:20:45;;;;;;;5.05;4.37;;;23.40;52.20;;;;;;4333866;61;21132;-27
2021/05/14 00:25:46;;;;;;;5.18;4.68;;;23.40;52.20;;;;;;4341093;61;22275;-26
2021/05/14 00:30:47;;;;;;;4.80;4.30;;;23.40;52.30;;;;;;4309422;61;21144;-24
2021/05/14 00:35:48;;;;;;;4.75;4.25;;;23.40;52.20;;;;;;4339180;61;21095;-25
2021/05/14 00:40:49;;;;;;;4.65;4.20;;;23.40;52.20;;;;;;4303480;61;21650;-26
2021/05/14 00:45:49;;;;;;;6.05;4.87;;;23.40;52.20;;;;;;4303985;61;21168;-26
2021/05/14 00:50:50;;;;;;;5.30;4.50;;;23.40;52.20;;;;;;4328726;61;21075;-24
2021/05/14 00:55:51;;;;;;;5.07;4.57;;;23.40;52.30;;;;;;4321848;61;21071;-25
2021/05/14 01:00:52;;;;;;;5.28;4.78;;;23.40;52.20;;;;;;4335363;61;21079;-22
2021/05/14 01:05:53;;;;;;;5.32;4.75;;;23.40;52.20;;;;;;4310157;61;21542;-23
2021/05/14 01:10:54;;;;;;;4.78;4.10;;;23.40;52.30;;;;;;4306209;61;21156;-23
2021/05/14 01:15:54;;;;;;;5.00;4.37;;;23.40;52.20;;;;;;4311855;61;21666;-22
2021/05/14 01:20:57;;;;;;;4.82;4.37;;;23.40;52.20;;;;;;4311048;61;21051;-23
2021/05/14 01:25:58;;;;;;;5.07;4.37;;;23.40;52.20;;;;;;4313273;60;21071;-27
2021/05/14 01:30:59;;;;;;;5.03;4.53;;;23.40;52.20;;;;;;4314308;60;21087;-24
2021/05/14 01:36:01;;;;;;;5.05;4.50;;;23.40;52.30;;;;;;4324120;61;21136;-24
2021/05/14 01:41:02;;;;;;;4.75;4.35;;;23.40;52.20;;;;;;4320312;60;21206;-26
2021/05/14 01:46:05;;;;;;;4.87;4.45;;;23.40;52.20;;;;;;4312757;60;21144;-26
2021/05/14 01:51:15;;;;;;;4.60;4.20;;;23.40;52.20;;;;;;4317491;60;21206;-26
2021/05/14 01:56:16;;;;;;;4.62;4.22;;;23.40;52.20;;;;;;4304114;60;21059;-24
2021/05/14 02:01:17;;;;;;;4.28;3.87;;;23.40;52.20;;;;;;4305235;61;21071;-26
2021/05/14 02:06:18;;;;;;;4.78;4.25;;;23.40;52.80;;;;;;4326671;60;21163;-27
2021/05/14 02:11:19;;;;;;;4.25;3.80;;;23.40;52.20;;;;;;4304656;60;21105;-27
2021/05/14 02:16:20;;;;;;;5.12;4.35;;;23.40;52.20;;;;;;4307173;61;21653;-25
2021/05/14 02:21:21;;;;;;;5.25;4.18;;;23.40;52.30;;;;;;4333284;61;21124;-25
2021/05/14 02:26:22;;;;;;;4.68;4.18;;;23.40;52.20;;;;;;4348920;61;21080;-24
2021/05/14 02:31:23;;;;;;;4.85;4.35;;;23.40;52.20;;;;;;4306554;61;21091;-27
2021/05/14 02:36:24;;;;;;;5.07;4.32;;;23.40;52.20;;;;;;4306777;60;21674;-26
2021/05/14 02:41:25;;;;;;;4.37;3.75;;;23.40;52.20;;;;;;4344700;60;21087;-25
2021/05/14 02:46:26;;;;;;;4.12;3.72;;;23.40;52.20;;;;;;4306931;61;21095;-25
2021/05/14 02:51:27;;;;;;;4.80;4.30;;;23.40;52.20;;;;;;4326120;61;21071;-21
2021/05/14 02:56:34;;;;;;;4.60;4.20;;;23.40;52.20;;;;;;4306897;61;21534;-25
2021/05/14 03:01:34;;;;;;;4.90;4.30;;;23.40;52.20;;;;;;4333815;60;21039;-23
2021/05/14 03:06:35;;;;;;;4.30;3.70;;;23.40;52.20;;;;;;4306616;61;21079;-25
2021/05/14 03:11:36;;;;;;;4.32;3.92;;;23.40;52.20;;;;;;4358935;60;21076;-23
2021/05/14 03:16:37;;;;;;;4.20;3.80;;;23.40;52.20;;;;;;4335144;61;21533;-20
2021/05/14 03:21:38;;;;;;;4.35;3.95;;;23.40;52.20;;;;;;4321724;61;21055;-23
2021/05/14 03:26:39;;;;;;;4.30;3.90;;;23.40;52.10;;;;;;4322636;61;21183;-23
2021/05/14 03:31:41;;;;;;;4.62;4.10;;;23.40;52.10;;;;;;4308280;61;21099;-25
2021/05/14 03:36:42;;;;;;;4.78;4.28;;;23.30;52.10;;;;;;4342264;61;21067;-25
2021/05/14 03:41:51;;;;;;;4.35;3.95;;;23.30;52.10;;;;;;4308777;61;21140;-25
2021/05/14 03:46:52;;;;;;;5.32;4.05;;;23.40;52.10;;;;;;4310295;60;21608;-25
2021/05/14 03:51:53;;;;;;;5.22;3.83;;;23.40;52.10;;;;;;4320549;61;21063;-25
2021/05/14 03:56:54;;;;;;;4.25;3.85;;;23.40;52.10;;;;;;4322661;61;21068;-26
2021/05/14 04:01:56;;;;;;;3.80;3.50;;;23.40;52.10;;;;;;4304349;61;21099;-26
2021/05/14 04:06:58;;;;;;;3.97;3.58;;;23.40;52.10;;;;;;4303973;65;21569;-26
2021/05/14 04:12:15;;;;;;;4.43;4.03;;;23.30;52.60;;;;;;4305498;61;21574;-21
2021/05/14 04:17:16;;;;;;;4.32;3.87;;;23.30;52.00;;;;;;4330338;60;21566;-26
2021/05/14 04:22:16;;;;;;;4.75;3.92;;;23.30;52.00;;;;;;4309795;61;21071;-23
2021/05/14 04:27:17;;;;;;;4.53;3.70;;;23.40;52.00;;;;;;4316455;61;21072;-23
2021/05/14 04:32:18;;;;;;;4.10;3.70;;;23.40;52.00;;;;;;4306199;60;21139;-21
2021/05/14 04:37:19;;;;;;;4.65;3.58;;;23.30;51.90;;;;;;4316993;61;21679;-27
2021/05/14 04:42:20;;;;;;;4.22;3.83;;;23.30;51.80;;;;;;4307779;61;21164;-24
2021/05/14 04:47:21;;;;;;;4.28;3.60;;;23.30;51.80;;;;;;4315686;61;21103;-25
2021/05/14 04:52:24;;;;;;;3.90;3.50;;;23.30;51.80;;;;;;4302992;65;21120;-26
2021/05/14 04:57:25;;;;;;;4.70;3.95;;;23.30;51.80;;;;;;4326726;61;21542;-26
2021/05/14 05:02:26;;;;;;;4.70;3.78;;;23.30;52.30;;;;;;4309512;61;21092;-26
2021/05/14 05:07:30;;;;;;;4.90;3.92;;;23.30;51.70;;;;;;4323583;60;21122;-27
2021/05/14 05:12:30;;;;;;;4.28;3.87;;;23.30;51.60;;;;;;4305481;61;21965;-25
2021/05/14 05:17:31;;;;;;;6.10;4.53;;;23.30;52.30;;;;;;4302767;65;21071;-25
2021/05/14 05:22:32;;;;;;;5.00;4.30;;;23.30;51.50;;;;;;4306740;61;21148;-24
2021/05/14 05:27:33;;;;;;;4.20;3.80;;;23.30;51.50;;;;;;4345997;60;21091;-26
2021/05/14 05:32:34;;;;;;;4.22;3.75;;;23.30;51.50;;;;;;4307354;61;21083;-25
2021/05/14 05:37:35;;;;;;;4.45;3.58;;;23.30;51.40;;;;;;4308561;61;21109;-28
2021/05/14 05:42:35;;;;;;;4.10;3.70;;;23.30;51.40;;;;;;4302216;65;21147;-25
2021/05/14 05:47:36;;;;;;;4.40;4.00;;;23.30;51.30;;;;;;4359961;61;21585;-24
2021/05/14 05:52:37;;;;;;;5.03;3.87;;;23.30;51.30;;;;;;4311278;61;21082;-28
2021/05/14 05:57:38;;;;;;;4.50;4.10;;;23.30;51.40;;;;;;4309346;61;21076;-26
2021/05/14 06:02:39;;;;;;;5.03;4.18;;;23.30;51.30;;;;;;4320289;60;21083;-25
2021/05/14 06:07:40;;;;;;;4.65;4.25;;;23.30;51.30;;;;;;4311389;61;21140;-26
2021/05/14 06:12:40;;;;;;;5.68;4.18;;;23.30;51.40;;;;;;4330826;61;21144;-25
2021/05/14 06:17:42;;;;;;;7.12;4.47;;;23.30;51.30;;;;;;4318209;61;21116;-25
2021/05/14 06:22:43;;;;;;;6.85;4.60;;;23.30;51.40;;;;;;4313856;61;21554;-25
2021/05/14 06:27:44;;;;;;;7.35;4.40;;;23.30;51.40;;;;;;4306094;61;21107;-27
2021/05/14 06:32:45;;;;;;;6.12;4.47;;;23.30;51.20;;;;;;4333109;60;21083;-24
2021/05/14 06:37:46;;;;;;;5.25;4.75;;;23.30;51.30;;;;;;4310288;61;21067;-25
2021/05/14 06:42:47;;;;;;;7.05;5.03;;;23.30;51.20;;;;;;4331801;61;21593;-20
2021/05/14 06:47:48;;;;;;;5.65;5.00;;;23.30;51.20;;;;;;4311697;61;21553;-25
2021/05/14 06:52:48;;;;;;;6.62;4.80;;;23.30;51.20;;;;;;4312101;61;21067;-25
2021/05/14 06:57:49;;;;;;;6.32;4.72;;;23.30;51.20;;;;;;4302240;61;21148;-24
2021/05/14 07:02:50;;;;;;;7.43;5.85;;;23.30;51.20;;;;;;4332875;61;21059;-28
2021/05/14 07:07:53;;;;;;;7.53;5.30;;;23.30;51.30;;;;;;4307135;61;21549;-26
2021/05/14 07:12:54;;;;;;;5.57;5.03;;;23.40;51.40;;;;;;4306513;60;21538;-25
2021/05/14 07:17:55;;;;;;;7.47;5.75;;;23.40;51.50;;;;;;4337107;60;21080;-25
2021/05/14 07:22:56;;;;;;;7.57;5.85;;;23.50;51.60;;;;;;4310673;61;21063;-25
2021/05/14 07:27:57;;;;;;;8.13;6.70;;;23.50;51.70;;;;;;4310636;61;21526;-25
2021/05/14 07:32:58;;;;;;;9.00;7.10;;;23.50;51.80;;;;;;4318174;61;21083;-27
2021/05/14 07:37:58;;;;;;;8.82;6.65;;;23.50;51.80;;;;;;4310153;61;21091;-26
2021/05/14 07:42:59;;;;;;;34.30;23.42;;;23.60;51.80;;;;;;4305489;61;21111;-22
2021/05/14 07:48:00;;;;;;;74.78;55.12;;;23.60;50.10;;;;;;4305814;61;21578;-29
2021/05/14 07:53:01;;;;;;;123.15;95.45;;;23.40;48.80;;;;;;4306240;61;21067;-26
2021/05/14 07:58:02;;;;;;;115.28;92.57;;;23.40;48.70;;;;;;4312751;61;21593;-24
2021/05/14 08:03:03;;;;;;;93.82;72.18;;;23.40;48.60;;;;;;4319045;61;21068;-21
2021/05/14 08:08:10;;;;;;;93.25;71.72;;;23.40;48.50;;;;;;4321828;61;21578;-25
2021/05/14 08:13:11;;;;;;;92.62;71.00;;;23.30;48.30;;;;;;4323902;61;21119;-23
2021/05/14 08:18:12;;;;;;;96.32;72.60;;;23.30;48.50;;;;;;4306689;61;21553;-19
2021/05/14 08:23:15;;;;;;;85.03;66.65;;;23.30;48.70;;;;;;4323134;61;21964;-27
2021/05/14 08:28:17;;;;;;;88.40;68.50;;;23.30;48.60;;;;;;4320956;60;21536;-26
2021/05/14 08:33:18;;;;;;;84.37;58.75;;;23.30;48.80;;;;;;4323658;61;21787;-26
2021/05/14 08:38:19;;;;;;;74.60;56.40;;;23.30;47.90;;;;;;4313263;61;21600;-23
2021/05/14 08:43:20;;;;;;;82.53;64.87;;;23.30;48.50;;;;;;4305860;61;21096;-27
2021/05/14 08:48:23;;;;;;;90.07;67.75;;;23.40;48.50;;;;;;4318276;61;21120;-24
2021/05/14 08:53:24;;;;;;;92.65;69.70;;;23.40;48.30;;;;;;4310472;61;21056;-25
2021/05/14 08:58:25;;;;;;;81.45;63.97;;;23.40;47.90;;;;;;4314816;61;21079;-21
2021/05/14 09:03:27;;;;;;;76.55;60.75;;;23.40;48.40;;;;;;4327516;61;21085;-24
2021/05/14 09:08:32;;;;;;;74.45;56.13;;;23.40;47.90;;;;;;4319302;61;21071;-26
2021/05/14 09:13:37;;;;;;;79.18;59.50;;;23.50;47.90;;;;;;4310184;61;21195;-21
2021/05/14 09:18:40;;;;;;;73.05;53.55;;;23.40;47.60;;;;;;4309113;61;21097;-23
2021/05/14 09:23:41;;;;;;;65.62;50.28;;;23.40;46.60;;;;;;4306254;61;21630;-23
2021/05/14 09:28:47;;;;;;;65.32;51.03;;;23.40;46.50;;;;;;4306480;61;21096;-23
2021/05/14 09:33:59;;;;;;;84.03;58.60;;;23.40;47.00;;;;;;4302774;65;21625;-22
2021/05/14 09:39:02;;;;;;;70.90;54.78;;;23.40;46.10;;;;;;4326907;61;21091;-25
2021/05/14 09:44:14;;;;;;;67.05;51.60;;;23.40;45.30;;;;;;4303535;61;21635;-22
2021/05/14 09:49:18;;;;;;;68.50;52.62;;;23.40;44.80;;;;;;4311649;61;21609;-17
2021/05/14 09:54:33;;;;;;;74.93;57.78;;;23.40;45.90;;;;;;4354230;61;22260;-21
2021/05/14 09:59:34;;;;;;;78.28;57.55;;;23.40;45.50;;;;;;4302627;62;21086;-25
2021/05/14 10:04:39;;;;;;;82.53;62.03;;;23.40;46.00;;;;;;4307624;61;21629;-24
2021/05/14 10:09:41;;;;;;;92.70;71.47;;;23.50;46.50;;;;;;4301964;65;21187;-22
2021/05/14 10:14:44;;;;;;;103.38;73.97;;;23.50;46.00;;;;;;4314200;61;21589;-26
2021/05/14 10:19:47;;;;;;;94.78;68.53;;;23.50;45.90;;;;;;4312111;61;21586;-24
2021/05/14 10:24:51;;;;;;;77.60;57.67;;;23.50;45.50;;;;;;4322039;61;21067;-25
2021/05/14 10:29:57;;;;;;;82.82;60.25;;;23.50;45.50;;;;;;4358833;61;21214;-25
2021/05/14 10:35:08;;;;;;;81.85;61.17;;;23.60;45.80;;;;;;4311594;61;21055;-25
2021/05/14 10:40:41;;;;;;;80.25;58.87;;;23.60;46.00;;;;;;4332634;60;21075;-23
2021/05/14 10:45:59;;;;;;;77.72;58.35;;;23.60;46.10;;;;;;4335247;61;21574;-24
2021/05/14 10:51:01;;;;;;;72.43;55.72;;;23.60;46.10;;;;;;4302251;65;21186;-21
2021/05/14 10:57:03;;;;;;;73.35;56.25;;;23.60;46.20;;;;;;4330639;61;21148;-24
2021/05/14 11:02:29;;;;;;;67.45;51.40;;;23.60;46.20;;;;;;4310352;61;21059;-25
2021/05/14 11:07:40;;;;;;;81.87;56.37;;;23.60;46.00;;;;;;4306495;61;21094;-25
2021/05/14 11:12:43;;;;;;;68.70;52.00;;;23.60;46.20;;;;;;4358911;61;21896;-25
2021/05/14 11:18:21;;;;;;;64.62;48.83;;;23.60;46.30;;;;;;4307654;61;21605;-24
2021/05/14 11:23:34;;;;;;;62.40;48.30;;;23.60;46.30;;;;;;4311633;60;21642;-19
2021/05/14 11:28:53;;;;;;;62.67;49.60;;;23.60;46.30;;;;;;4301917;65;21044;-26
2021/05/14 11:33:56;;;;;;;56.90;45.92;;;23.70;46.50;;;;;;4303296;61;21067;-21
2021/05/14 11:38:57;;;;;;;57.42;45.00;;;23.70;46.50;;;;;;4321356;61;21108;-26
2021/05/14 11:44:03;;;;;;;56.55;45.65;;;23.70;46.60;;;;;;4314768;60;21680;-25
2021/05/14 11:49:09;;;;;;;53.22;43.75;;;23.70;46.60;;;;;;4302671;65;21159;-26
2021/05/14 11:54:14;;;;;;;58.13;44.10;;;23.70;46.70;;;;;;4328466;61;21052;-24
2021/05/14 11:59:21;;;;;;;54.58;43.60;;;23.70;47.50;;;;;;4309822;61;21087;-24
2021/05/14 12:04:22;;;;;;;54.63;43.92;;;23.70;47.00;;;;;;4304627;61;21460;-25
2021/05/14 12:09:23;;;;;;;54.30;44.70;;;23.70;47.00;;;;;;4307457;60;21175;-24
2021/05/14 12:14:24;;;;;;;50.55;41.33;;;23.70;47.10;;;;;;4311244;61;21837;-26
2021/05/14 12:19:27;;;;;;;55.15;41.90;;;23.70;47.60;;;;;;4316316;60;21080;-23
2021/05/14 12:24:38;;;;;;;54.40;43.03;;;23.70;47.80;;;;;;4314614;61;21067;-22
2021/05/14 12:29:39;;;;;;;51.97;42.10;;;23.80;48.10;;;;;;4319262;61;21199;-22
2021/05/14 12:34:51;;;;;;;52.95;41.85;;;23.80;48.40;;;;;;4321936;61;21642;-23
2021/05/14 12:39:51;;;;;;;54.00;40.47;;;23.80;49.20;;;;;;4304110;61;21103;-27
2021/05/14 12:44:53;;;;;;;54.08;41.50;;;23.80;49.20;;;;;;4302462;65;21406;-23
2021/05/14 12:50:02;;;;;;;52.70;42.20;;;23.80;49.40;;;;;;4335638;61;21166;-26
2021/05/14 12:55:12;;;;;;;49.47;39.53;;;23.80;49.70;;;;;;4311313;61;21141;-25
2021/05/14 13:00:26;;;;;;;53.53;41.13;;;23.90;49.90;;;;;;4304751;61;21059;-24
2021/05/14 13:05:41;;;;;;;51.78;41.22;;;23.90;49.90;;;;;;4322887;61;21102;-22
2021/05/14 13:10:50;;;;;;;52.00;41.00;;;23.90;50.80;;;;;;4315040;61;21083;-25
2021/05/14 13:15:53;;;;;;;50.05;40.03;;;23.90;50.30;;;;;;4333981;60;21132;-25
2021/05/14 13:20:58;;;;;;;49.10;40.20;;;23.90;50.40;;;;;;4323139;60;21134;-27
2021/05/14 13:25:59;;;;;;;54.55;43.80;;;23.90;50.50;;;;;;4303282;65;21573;-25
2021/05/14 13:31:00;;;;;;;69.30;52.38;;;23.90;50.60;;;;;;4313122;61;21620;-26
2021/05/14 13:36:00;;;;;;;66.05;51.88;;;23.90;50.90;;;;;;4306920;61;21079;-24
2021/05/14 13:41:02;;;;;;;67.03;53.63;;;23.90;50.90;;;;;;4302771;61;21128;-27
2021/05/14 13:46:04;;;;;;;64.85;52.40;;;23.90;51.10;;;;;;4331032;61;21079;-24
2021/05/14 13:51:05;;;;;;;64.78;51.97;;;23.90;51.20;;;;;;4302733;61;21064;-18
2021/05/14 13:56:06;;;;;;;62.00;50.47;;;23.90;51.30;;;;;;4318581;61;21067;-26
2021/05/14 14:01:09;;;;;;;64.12;51.53;;;24.00;51.70;;;;;;4303061;65;21096;-25
2021/05/14 14:06:10;;;;;;;64.78;50.75;;;23.90;51.70;;;;;;4316292;61;21110;-26
2021/05/14 14:11:10;;;;;;;65.70;49.83;;;23.90;51.80;;;;;;4318200;61;21144;-22
2021/05/14 14:16:11;;;;;;;59.83;49.47;;;23.80;51.90;;;;;;4316743;61;21106;-26
2021/05/14 14:21:12;;;;;;;61.50;49.88;;;23.80;51.90;;;;;;4318714;61;21140;-25
2021/05/14 14:26:13;;;;;;;58.78;48.97;;;23.70;51.90;;;;;;4314150;61;21997;-25
2021/05/14 14:31:13;;;;;;;60.95;49.45;;;23.70;52.00;;;;;;4317377;61;21589;-25
2021/05/14 14:36:14;;;;;;;56.50;46.17;;;23.70;52.10;;;;;;4305362;61;21088;-20
2021/05/14 14:41:15;;;;;;;58.63;47.22;;;23.70;52.10;;;;;;4303878;61;21083;-18
2021/05/14 14:46:16;;;;;;;55.08;45.78;;;23.70;52.10;;;;;;4330986;61;21081;-23
2021/05/14 14:51:17;;;;;;;54.63;44.53;;;23.70;52.10;;;;;;4306454;61;21137;-25
2021/05/14 14:56:18;;;;;;;54.47;45.53;;;23.60;52.10;;;;;;4338326;61;21222;-25
2021/05/14 15:01:18;;;;;;;56.95;48.60;;;23.60;52.10;;;;;;4305810;61;21067;-24
2021/05/14 15:06:19;;;;;;;53.60;45.03;;;23.60;52.10;;;;;;4361241;61;21154;-25
2021/05/14 15:11:20;;;;;;;51.35;43.13;;;23.60;52.20;;;;;;4332045;61;21139;-20
2021/05/14 15:16:21;;;;;;;53.95;44.22;;;23.60;52.20;;;;;;4315820;61;21067;-25
2021/05/14 15:21:22;;;;;;;54.10;42.83;;;23.60;52.20;;;;;;4320251;61;21068;-22
2021/05/14 15:26:23;;;;;;;53.22;43.08;;;23.60;52.20;;;;;;4325892;61;22273;-23
2021/05/14 15:31:24;;;;;;;52.05;43.00;;;23.60;52.20;;;;;;4303232;61;21601;-23
2021/05/14 15:36:24;;;;;;;49.65;41.33;;;23.60;52.30;;;;;;4307833;61;21084;-21
2021/05/14 15:41:28;;;;;;;51.85;41.75;;;23.60;52.20;;;;;;4360324;61;21116;-24
2021/05/14 15:46:29;;;;;;;48.53;40.50;;;23.50;52.20;;;;;;4303335;65;21151;-26
2021/05/14 15:51:30;;;;;;;51.75;42.67;;;23.50;52.20;;;;;;4305103;61;21075;-25
2021/05/14 15:56:31;;;;;;;51.17;42.45;;;23.50;52.20;;;;;;4330779;61;21063;-25
2021/05/14 16:01:32;;;;;;;50.97;42.80;;;23.50;52.30;;;;;;4313566;60;21108;-24
2021/05/14 16:06:35;;;;;;;51.50;42.40;;;23.50;52.30;;;;;;4327350;61;21123;-25
2021/05/14 16:11:36;;;;;;;55.00;44.47;;;23.50;52.30;;;;;;4303370;61;21099;-25
2021/05/14 16:16:39;;;;;;;52.92;43.78;;;23.50;52.30;;;;;;4303272;65;21111;-20
2021/05/14 16:21:40;;;;;;;50.67;41.63;;;23.50;52.30;;;;;;4320309;61;21561;-26
2021/05/14 16:26:43;;;;;;;53.00;41.85;;;23.50;52.30;;;;;;4315693;61;21095;-27
2021/05/14 16:31:44;;;;;;;52.15;43.45;;;23.50;52.40;;;;;;4312553;61;21142;-24
2021/05/14 16:36:45;;;;;;;51.90;43.95;;;23.50;52.40;;;;;;4302913;65;21585;-29
2021/05/14 16:41:46;;;;;;;53.42;44.60;;;23.50;52.50;;;;;;4302365;64;21087;-26
2021/05/14 16:46:46;;;;;;;52.90;44.03;;;23.50;52.40;;;;;;4313880;60;21206;-21
2021/05/14 16:51:48;;;;;;;49.97;42.60;;;23.50;52.40;;;;;;4343336;61;21600;-25
2021/05/14 16:56:49;;;;;;;48.00;40.12;;;23.50;52.40;;;;;;4303621;61;21557;-27
2021/05/14 17:01:50;;;;;;;53.53;44.00;;;23.50;52.40;;;;;;4305521;61;21108;-24
2021/05/14 17:06:58;;;;;;;51.75;41.40;;;23.50;52.50;;;;;;4315347;61;21617;-25
2021/05/14 17:11:59;;;;;;;50.80;42.50;;;23.50;52.50;;;;;;4302779;61;21649;-24
2021/05/14 17:17:01;;;;;;;48.42;41.05;;;23.50;52.40;;;;;;4317068;61;21143;-24
2021/05/14 17:22:05;;;;;;;48.08;40.85;;;23.50;52.50;;;;;;4302727;65;21043;-27
2021/05/14 17:27:06;;;;;;;44.83;38.38;;;23.50;52.50;;;;;;4327343;61;21059;-23
2021/05/14 17:32:07;;;;;;;47.05;40.55;;;23.40;52.40;;;;;;4301256;61;21126;-26
2021/05/14 17:37:10;;;;;;;47.50;39.63;;;23.50;52.50;;;;;;4303175;65;21075;-23
2021/05/14 17:42:11;;;;;;;46.83;38.72;;;23.50;52.60;;;;;;4338010;61;21099;-27
2021/05/14 17:47:14;;;;;;;44.78;38.80;;;23.50;52.50;;;;;;4310442;61;21079;-25
2021/05/14 17:52:15;;;;;;;48.05;39.17;;;23.50;52.50;;;;;;4355211;61;22349;-26
2021/05/14 17:57:17;;;;;;;44.67;38.05;;;23.50;52.60;;;;;;4317741;61;21309;-24
2021/05/14 18:02:19;;;;;;;44.45;37.65;;;23.50;52.60;;;;;;4307447;61;21764;-22
2021/05/14 18:07:22;;;;;;;47.40;38.15;;;23.40;52.60;;;;;;4314679;61;21598;-25
2021/05/14 18:12:22;;;;;;;42.45;36.60;;;23.50;52.60;;;;;;4330224;61;21569;-26
2021/05/14 18:17:25;;;;;;;41.78;36.67;;;23.40;52.60;;;;;;4302762;65;21267;-26
2021/05/14 18:22:27;;;;;;;40.22;35.05;;;23.40;52.60;;;;;;4316071;61;21549;-26
2021/05/14 18:27:29;;;;;;;43.75;36.05;;;23.40;52.60;;;;;;4310501;61;21662;-25
2021/05/14 18:32:29;;;;;;;44.72;36.65;;;23.40;52.70;;;;;;4302512;61;21076;-26
2021/05/14 18:37:30;;;;;;;42.53;36.35;;;23.40;52.70;;;;;;4359477;60;21549;-21
2021/05/14 18:42:33;;;;;;;41.63;34.30;;;23.40;52.70;;;;;;4306125;61;21095;-23
2021/05/14 18:47:35;;;;;;;43.45;37.58;;;23.40;52.70;;;;;;4307973;61;21541;-25
2021/05/14 18:52:38;;;;;;;43.75;34.47;;;23.40;52.70;;;;;;4302615;65;21158;-25
2021/05/14 18:57:39;;;;;;;41.72;34.13;;;23.50;52.80;;;;;;4320108;61;21087;-24
2021/05/14 19:02:41;;;;;;;38.03;33.13;;;23.50;52.80;;;;;;4340236;61;21078;-21
2021/05/14 19:07:42;;;;;;;37.95;33.10;;;23.40;52.80;;;;;;4309852;61;21551;-20
2021/05/14 19:12:44;;;;;;;41.40;33.42;;;23.40;52.80;;;;;;4302697;61;21106;-26
2021/05/14 19:17:45;;;;;;;41.92;33.75;;;23.40;52.80;;;;;;4303094;65;21164;-23
2021/05/14 19:22:57;;;;;;;41.17;33.33;;;23.40;52.80;;;;;;4305401;61;21067;-24
2021/05/14 19:29:06;;;;;;;38.08;32.47;;;23.40;52.80;;;;;;4305418;61;21573;-27
2021/05/14 19:47:00;;;;;;;39.35;32.67;;;23.40;52.80;;;;;;4317977;61;21691;-26
2021/05/14 19:52:01;;;;;;;37.85;31.87;;;23.40;52.80;;;;;;4327031;61;21593;-25
2021/05/14 19:57:02;;;;;;;36.20;30.05;;;23.40;52.90;;;;;;4304353;61;21080;-23
2021/05/14 20:02:03;;;;;;;33.75;30.00;;;23.40;52.90;;;;;;4308636;61;21101;-25
2021/05/14 20:07:05;;;;;;;34.25;30.05;;;23.40;52.80;;;;;;4316040;61;21083;-27
2021/05/14 20:12:07;;;;;;;34.28;29.83;;;23.40;52.80;;;;;;4314431;61;21071;-26
2021/05/14 20:17:08;;;;;;;34.50;29.05;;;23.40;52.80;;;;;;4305345;61;21076;-25
2021/05/14 20:22:09;;;;;;;33.35;29.27;;;23.40;52.80;;;;;;4317402;61;21075;-25
2021/05/14 20:27:10;;;;;;;34.70;28.87;;;23.40;52.80;;;;;;4323190;61;22059;-25
2021/05/14 20:32:11;;;;;;;33.33;29.67;;;23.40;52.80;;;;;;4302065;65;21071;-27
2021/05/14 20:37:15;;;;;;;32.20;27.83;;;23.40;52.70;;;;;;4306841;61;21557;-25
2021/05/14 20:42:17;;;;;;;32.65;28.95;;;23.40;52.80;;;;;;4302767;61;21136;-26
2021/05/14 20:47:18;;;;;;;33.20;28.70;;;23.40;52.70;;;;;;4329048;61;21899;-22
2021/05/14 20:52:22;;;;;;;30.95;27.65;;;23.40;52.80;;;;;;4317860;61;21071;-22
2021/05/14 20:57:23;;;;;;;30.88;27.45;;;23.40;52.70;;;;;;4305255;61;21589;-26
2021/05/14 21:02:25;;;;;;;29.48;25.90;;;23.40;52.80;;;;;;4327866;61;21075;-24
2021/05/14 21:07:26;;;;;;;32.70;26.75;;;23.40;52.70;;;;;;4320681;61;21541;-28
2021/05/14 21:12:26;;;;;;;28.25;25.12;;;23.40;52.70;;;;;;4313025;61;21087;-26
2021/05/14 21:17:27;;;;;;;29.80;25.83;;;23.40;52.60;;;;;;4310334;61;21626;-25
2021/05/14 21:22:28;;;;;;;29.77;25.55;;;23.30;52.60;;;;;;4325943;61;21159;-25
2021/05/14 21:27:29;;;;;;;28.00;24.55;;;23.30;52.50;;;;;;4312393;61;21638;-24
2021/05/14 21:32:31;;;;;;;28.98;25.27;;;23.30;52.60;;;;;;4307800;61;21068;-24
2021/05/14 21:37:32;;;;;;;29.35;25.80;;;23.30;52.50;;;;;;4302132;65;21099;-25
2021/05/14 21:42:32;;;;;;;29.00;24.92;;;23.30;52.60;;;;;;4304020;61;21179;-26
2021/05/14 21:47:33;;;;;;;27.08;24.12;;;23.30;52.50;;;;;;4316408;61;21067;-20
2021/05/14 21:52:34;;;;;;;27.30;24.25;;;23.30;52.60;;;;;;4316943;61;21131;-22
2021/05/14 21:57:35;;;;;;;26.67;23.75;;;23.40;52.60;;;;;;4314832;61;21128;-24
2021/05/14 22:02:39;;;;;;;27.33;23.48;;;23.30;53.20;;;;;;4322182;61;21540;-24
2021/05/14 22:07:40;;;;;;;27.08;24.02;;;23.30;52.50;;;;;;4318765;61;21068;-24
2021/05/14 22:12:40;;;;;;;27.85;23.98;;;23.40;52.60;;;;;;4311833;61;21136;-25
2021/05/14 22:17:41;;;;;;;25.05;22.30;;;23.40;52.60;;;;;;4306065;61;21067;-26
2021/05/14 22:22:45;;;;;;;27.52;23.98;;;23.30;52.50;;;;;;4319796;61;21629;-27
2021/05/14 22:27:45;;;;;;;25.65;21.92;;;23.40;52.60;;;;;;4330731;61;21664;-26
2021/05/14 22:32:47;;;;;;;23.85;21.05;;;23.40;52.50;;;;;;4323172;61;21179;-24
2021/05/14 22:37:49;;;;;;;26.05;21.87;;;23.40;52.60;;;;;;4358395;61;21086;-25
2021/05/14 22:42:49;;;;;;;26.10;23.30;;;23.30;52.50;;;;;;4302581;65;21578;-24
2021/05/14 22:47:50;;;;;;;27.98;23.67;;;23.30;52.50;;;;;;4305133;61;21088;-24
2021/05/14 22:52:51;;;;;;;24.50;21.60;;;23.30;52.50;;;;;;4321504;61;21097;-25
2021/05/14 22:57:52;;;;;;;25.45;21.42;;;23.30;52.50;;;;;;4323031;61;21712;-26
2021/05/14 23:02:53;;;;;;;24.77;21.27;;;23.30;52.50;;;;;;4320343;61;21067;-21
2021/05/14 23:07:54;;;;;;;25.35;22.15;;;23.30;52.50;;;;;;4302760;65;21622;-24
2021/05/14 23:12:54;;;;;;;23.55;21.02;;;23.30;52.50;;;;;;4322147;61;21658;-26
2021/05/14 23:17:55;;;;;;;23.25;20.70;;;23.30;52.50;;;;;;4330414;61;21522;-25
2021/05/14 23:22:58;;;;;;;23.55;20.40;;;23.30;52.50;;;;;;4304685;61;21654;-25
2021/05/14 23:27:59;;;;;;;25.33;21.83;;;23.30;52.40;;;;;;4335328;60;21631;-25
2021/05/14 23:33:00;;;;;;;21.92;19.55;;;23.30;53.10;;;;;;4307567;61;21091;-23
2021/05/14 23:38:00;;;;;;;23.58;20.10;;;23.30;52.40;;;;;;4309483;61;21573;-25
2021/05/14 23:43:01;;;;;;;21.73;19.20;;;23.30;52.40;;;;;;4327940;61;21147;-25
2021/05/14 23:48:04;;;;;;;22.27;19.37;;;23.30;52.40;;;;;;4334922;61;21180;-23
2021/05/14 23:53:06;;;;;;;21.83;19.50;;;23.30;52.40;;;;;;4307966;61;21136;-26
2021/05/14 23:58:07;;;;;;;21.35;19.12;;;23.30;52.40;;;;;;4313236;61;21617;-27
